sensor_id;sensor_type;location;lat;lon;timestamp;temperature;humidity
12602;DHT22;30282;16.436;99.370;2023-06-14T00:01:09;27.40;99.90
12602;DHT22;30282;16.436;99.370;2023-06-14T00:03:43;27.40;99.90
12602;DHT22;30282;16.436;99.370;2023-06-14T00:06:12;27.40;99.90
12602;DHT22;30282;16.436;99.370;2023-06-14T00:08:43;27.40;99.90
12602;DHT22;30282;16.436;99.370;2023-06-14T00:11:12;27.20;99.90
12602;DHT22;30282;16.436;99.370;2023-06-14T00:13:42;27.20;99.90
12602;DHT22;30282;16.436;99.370;2023-06-14T00:16:11;27.20;99.90
12602;DHT22;30282;16.436;99.370;2023-06-14T00:18:40;27.30;99.90
12602;DHT22;30282;16.436;99.370;2023-06-14T00:21:12;27.20;99.90
12602;DHT22;30282;16.436;99.370;2023-06-14T00:23:45;27.30;99.90
12602;DHT22;30282;16.436;99.370;2023-06-14T00:26:14;27.30;99.90
12602;DHT22;30282;16.436;99.370;2023-06-14T00:28:44;27.40;99.90
12602;DHT22;30282;16.436;99.370;2023-06-14T00:31:13;27.40;99.90
12602;DHT22;30282;16.436;99.370;2023-06-14T00:33:42;27.50;99.90
12602;DHT22;30282;16.436;99.370;2023-06-14T00:36:12;27.50;99.90
12602;DHT22;30282;16.436;99.370;2023-06-14T00:38:43;27.50;99.90
12602;DHT22;30282;16.436;99.370;2023-06-14T00:41:15;27.70;99.90
12602;DHT22;30282;16.436;99.370;2023-06-14T00:43:44;27.70;99.90
12602;DHT22;30282;16.436;99.370;2023-06-14T00:46:13;27.70;99.90
12602;DHT22;30282;16.436;99.370;2023-06-14T00:48:43;27.80;99.90
12602;DHT22;30282;16.436;99.370;2023-06-14T00:51:12;27.80;99.90
12602;DHT22;30282;16.436;99.370;2023-06-14T00:53:44;27.90;99.90
12602;DHT22;30282;16.436;99.370;2023-06-14T00:56:15;28.00;99.90
12602;DHT22;30282;16.436;99.370;2023-06-14T00:58:47;28.00;99.90
12602;DHT22;30282;16.436;99.370;2023-06-14T01:01:17;28.00;99.90
12602;DHT22;30282;16.436;99.370;2023-06-14T01:03:47;28.10;99.90
12602;DHT22;30282;16.436;99.370;2023-06-14T01:06:23;28.10;99.90
12602;DHT22;30282;16.436;99.370;2023-06-14T01:09:06;28.10;99.90
12602;DHT22;30282;16.436;99.370;2023-06-14T01:11:41;28.10;99.90
12602;DHT22;30282;16.436;99.370;2023-06-14T01:14:15;28.10;99.90
12602;DHT22;30282;16.436;99.370;2023-06-14T01:16:45;28.20;99.90
12602;DHT22;30282;16.436;99.370;2023-06-14T01:19:16;28.30;99.90
12602;DHT22;30282;16.436;99.370;2023-06-14T01:21:46;28.30;99.90
12602;DHT22;30282;16.436;99.370;2023-06-14T01:24:19;28.30;99.90
12602;DHT22;30282;16.436;99.370;2023-06-14T01:26:53;28.30;99.90
12602;DHT22;30282;16.436;99.370;2023-06-14T01:29:24;28.40;99.90
12602;DHT22;30282;16.436;99.370;2023-06-14T01:31:54;28.30;99.90
12602;DHT22;30282;16.436;99.370;2023-06-14T01:34:24;28.30;99.90
12602;DHT22;30282;16.436;99.370;2023-06-14T01:36:54;28.30;99.90
12602;DHT22;30282;16.436;99.370;2023-06-14T01:39:25;28.30;99.90
12602;DHT22;30282;16.436;99.370;2023-06-14T01:41:55;28.40;99.90
12602;DHT22;30282;16.436;99.370;2023-06-14T01:44:24;28.40;99.90
12602;DHT22;30282;16.436;99.370;2023-06-14T01:46:54;28.40;99.90
12602;DHT22;30282;16.436;99.370;2023-06-14T01:49:23;28.50;99.90
12602;DHT22;30282;16.436;99.370;2023-06-14T01:51:53;28.50;99.90
12602;DHT22;30282;16.436;99.370;2023-06-14T01:54:24;28.50;99.90
12602;DHT22;30282;16.436;99.370;2023-06-14T01:56:54;28.50;99.90
12602;DHT22;30282;16.436;99.370;2023-06-14T01:59:23;28.60;99.90
12602;DHT22;30282;16.436;99.370;2023-06-14T02:01:53;28.60;99.90
12602;DHT22;30282;16.436;99.370;2023-06-14T02:04:22;28.60;99.90
12602;DHT22;30282;16.436;99.370;2023-06-14T02:06:51;28.70;99.90
12602;DHT22;30282;16.436;99.370;2023-06-14T02:09:20;28.70;99.90
12602;DHT22;30282;16.436;99.370;2023-06-14T02:11:52;28.80;99.90
12602;DHT22;30282;16.436;99.370;2023-06-14T02:14:21;28.80;99.90
12602;DHT22;30282;16.436;99.370;2023-06-14T02:16:50;28.80;99.90
12602;DHT22;30282;16.436;99.370;2023-06-14T02:19:20;28.80;99.90
12602;DHT22;30282;16.436;99.370;2023-06-14T02:21:50;28.80;99.90
12602;DHT22;30282;16.436;99.370;2023-06-14T02:24:19;28.80;99.90
12602;DHT22;30282;16.436;99.370;2023-06-14T02:26:48;28.80;99.90
12602;DHT22;30282;16.436;99.370;2023-06-14T02:29:20;28.80;99.90
12602;DHT22;30282;16.436;99.370;2023-06-14T02:31:49;28.90;99.90
12602;DHT22;30282;16.436;99.370;2023-06-14T02:34:18;28.90;99.90
12602;DHT22;30282;16.436;99.370;2023-06-14T02:36:48;29.00;99.90
12602;DHT22;30282;16.436;99.370;2023-06-14T02:39:19;29.10;99.90
12602;DHT22;30282;16.436;99.370;2023-06-14T02:41:50;29.10;99.90
12602;DHT22;30282;16.436;99.370;2023-06-14T02:44:24;29.10;99.90
12602;DHT22;30282;16.436;99.370;2023-06-14T02:46:54;29.10;99.90
12602;DHT22;30282;16.436;99.370;2023-06-14T02:49:25;29.20;99.90
12602;DHT22;30282;16.436;99.370;2023-06-14T02:51:54;29.20;99.90
12602;DHT22;30282;16.436;99.370;2023-06-14T02:54:23;29.20;99.90
12602;DHT22;30282;16.436;99.370;2023-06-14T02:56:53;29.30;99.90
12602;DHT22;30282;16.436;99.370;2023-06-14T02:59:24;29.30;99.90
12602;DHT22;30282;16.436;99.370;2023-06-14T03:01:53;29.40;99.90
12602;DHT22;30282;16.436;99.370;2023-06-14T03:04:22;29.40;99.90
12602;DHT22;30282;16.436;99.370;2023-06-14T03:06:52;29.50;99.90
12602;DHT22;30282;16.436;99.370;2023-06-14T03:09:21;29.50;99.90
12602;DHT22;30282;16.436;99.370;2023-06-14T03:11:51;29.50;99.90
12602;DHT22;30282;16.436;99.370;2023-06-14T03:14:20;29.40;99.90
12602;DHT22;30282;16.436;99.370;2023-06-14T03:16:51;29.40;99.90
12602;DHT22;30282;16.436;99.370;2023-06-14T03:19:24;29.40;99.90
12602;DHT22;30282;16.436;99.370;2023-06-14T03:21:53;29.40;99.90
12602;DHT22;30282;16.436;99.370;2023-06-14T03:24:23;29.40;99.90
12602;DHT22;30282;16.436;99.370;2023-06-14T03:26:54;29.40;99.90
12602;DHT22;30282;16.436;99.370;2023-06-14T03:29:23;29.40;99.90
12602;DHT22;30282;16.436;99.370;2023-06-14T03:32:01;29.50;99.90
12602;DHT22;30282;16.436;99.370;2023-06-14T03:34:31;29.50;99.90
12602;DHT22;30282;16.436;99.370;2023-06-14T03:37:00;29.60;99.90
12602;DHT22;30282;16.436;99.370;2023-06-14T03:39:30;29.60;99.90
12602;DHT22;30282;16.436;99.370;2023-06-14T03:41:59;29.60;99.90
12602;DHT22;30282;16.436;99.370;2023-06-14T03:44:28;29.60;99.90
12602;DHT22;30282;16.436;99.370;2023-06-14T03:46:59;29.50;99.90
12602;DHT22;30282;16.436;99.370;2023-06-14T03:49:28;29.60;99.90
12602;DHT22;30282;16.436;99.370;2023-06-14T03:51:57;29.60;99.90
12602;DHT22;30282;16.436;99.370;2023-06-14T03:54:27;29.60;99.90
12602;DHT22;30282;16.436;99.370;2023-06-14T03:56:56;29.70;99.90
12602;DHT22;30282;16.436;99.370;2023-06-14T03:59:25;29.70;99.90
12602;DHT22;30282;16.436;99.370;2023-06-14T04:01:55;29.70;99.90
12602;DHT22;30282;16.436;99.370;2023-06-14T04:04:26;29.80;99.90
12602;DHT22;30282;16.436;99.370;2023-06-14T04:06:56;29.90;99.90
12602;DHT22;30282;16.436;99.370;2023-06-14T04:09:25;29.80;99.90
12602;DHT22;30282;16.436;99.370;2023-06-14T04:11:54;29.70;99.90
12602;DHT22;30282;16.436;99.370;2023-06-14T04:14:24;29.70;99.90
12602;DHT22;30282;16.436;99.370;2023-06-14T04:16:53;29.70;99.90
12602;DHT22;30282;16.436;99.370;2023-06-14T04:19:24;29.80;99.90
12602;DHT22;30282;16.436;99.370;2023-06-14T04:21:53;29.90;99.90
12602;DHT22;30282;16.436;99.370;2023-06-14T04:24:22;29.90;99.90
12602;DHT22;30282;16.436;99.370;2023-06-14T04:26:55;29.80;99.90
12602;DHT22;30282;16.436;99.370;2023-06-14T04:29:25;29.80;99.90
12602;DHT22;30282;16.436;99.370;2023-06-14T04:31:56;29.70;99.90
12602;DHT22;30282;16.436;99.370;2023-06-14T04:34:29;29.70;99.90
12602;DHT22;30282;16.436;99.370;2023-06-14T04:36:59;29.70;99.90
12602;DHT22;30282;16.436;99.370;2023-06-14T04:39:28;29.70;99.90
12602;DHT22;30282;16.436;99.370;2023-06-14T04:41:57;29.80;99.90
12602;DHT22;30282;16.436;99.370;2023-06-14T04:44:27;29.70;99.90
12602;DHT22;30282;16.436;99.370;2023-06-14T04:46:59;29.80;99.90
12602;DHT22;30282;16.436;99.370;2023-06-14T04:49:30;29.90;99.90
12602;DHT22;30282;16.436;99.370;2023-06-14T04:52:01;30.00;99.90
12602;DHT22;30282;16.436;99.370;2023-06-14T04:54:30;30.00;99.90
12602;DHT22;30282;16.436;99.370;2023-06-14T04:57:00;30.10;99.90
12602;DHT22;30282;16.436;99.370;2023-06-14T04:59:29;30.10;99.90
12602;DHT22;30282;16.436;99.370;2023-06-14T05:02:00;30.20;99.90
12602;DHT22;30282;16.436;99.370;2023-06-14T05:04:31;30.30;99.90
12602;DHT22;30282;16.436;99.370;2023-06-14T05:07:00;30.40;99.90
12602;DHT22;30282;16.436;99.370;2023-06-14T05:09:30;30.40;99.90
12602;DHT22;30282;16.436;99.370;2023-06-14T05:12:00;30.60;99.90
12602;DHT22;30282;16.436;99.370;2023-06-14T05:14:29;30.70;99.90
12602;DHT22;30282;16.436;99.370;2023-06-14T05:16:58;30.80;99.90
12602;DHT22;30282;16.436;99.370;2023-06-14T05:19:32;30.90;99.90
12602;DHT22;30282;16.436;99.370;2023-06-14T05:22:01;31.00;99.90
12602;DHT22;30282;16.436;99.370;2023-06-14T05:24:31;31.10;99.90
12602;DHT22;30282;16.436;99.370;2023-06-14T05:27:00;31.20;99.90
12602;DHT22;30282;16.436;99.370;2023-06-14T05:29:29;31.30;99.90
12602;DHT22;30282;16.436;99.370;2023-06-14T05:31:59;31.40;99.90
12602;DHT22;30282;16.436;99.370;2023-06-14T05:34:38;31.50;99.90
12602;DHT22;30282;16.436;99.370;2023-06-14T05:37:08;31.60;99.90
12602;DHT22;30282;16.436;99.370;2023-06-14T05:39:37;31.80;99.90
12602;DHT22;30282;16.436;99.370;2023-06-14T05:42:07;31.90;99.90
12602;DHT22;30282;16.436;99.370;2023-06-14T05:44:36;32.00;99.90
12602;DHT22;30282;16.436;99.370;2023-06-14T05:47:05;32.10;99.90
12602;DHT22;30282;16.436;99.370;2023-06-14T06:43:02;32.10;99.90
12602;DHT22;30282;16.436;99.370;2023-06-14T06:45:31;32.40;99.90
12602;DHT22;30282;16.436;99.370;2023-06-14T06:48:00;32.50;99.90
12602;DHT22;30282;16.436;99.370;2023-06-14T06:50:29;32.50;99.90
12602;DHT22;30282;16.436;99.370;2023-06-14T06:52:58;32.60;99.90
12602;DHT22;30282;16.436;99.370;2023-06-14T06:55:27;32.70;99.90
12602;DHT22;30282;16.436;99.370;2023-06-14T06:57:56;32.80;99.90
12602;DHT22;30282;16.436;99.370;2023-06-14T07:00:28;32.80;99.90
12602;DHT22;30282;16.436;99.370;2023-06-14T07:02:57;32.90;99.90
12602;DHT22;30282;16.436;99.370;2023-06-14T07:05:26;33.00;99.90
12602;DHT22;30282;16.436;99.370;2023-06-14T07:07:55;33.00;99.90
12602;DHT22;30282;16.436;99.370;2023-06-14T07:10:24;33.00;99.90
12602;DHT22;30282;16.436;99.370;2023-06-14T07:12:53;33.10;99.90
12602;DHT22;30282;16.436;99.370;2023-06-14T07:15:22;33.10;99.90
12602;DHT22;30282;16.436;99.370;2023-06-14T07:17:53;33.10;99.90
12602;DHT22;30282;16.436;99.370;2023-06-14T07:20:26;33.00;99.90
12602;DHT22;30282;16.436;99.370;2023-06-14T07:22:55;32.80;99.90
12602;DHT22;30282;16.436;99.370;2023-06-14T07:25:24;32.90;99.90
12602;DHT22;30282;16.436;99.370;2023-06-14T07:27:53;33.10;99.90
12602;DHT22;30282;16.436;99.370;2023-06-14T07:30:22;33.20;99.90
12602;DHT22;30282;16.436;99.370;2023-06-14T07:32:54;33.20;99.90
12602;DHT22;30282;16.436;99.370;2023-06-14T07:35:23;33.20;99.90
12602;DHT22;30282;16.436;99.370;2023-06-14T07:37:52;33.20;99.90
12602;DHT22;30282;16.436;99.370;2023-06-14T07:40:21;33.00;99.90
12602;DHT22;30282;16.436;99.370;2023-06-14T07:42:50;33.00;99.90
12602;DHT22;30282;16.436;99.370;2023-06-14T07:45:24;33.00;99.90
12602;DHT22;30282;16.436;99.370;2023-06-14T07:47:54;33.00;99.90
12602;DHT22;30282;16.436;99.370;2023-06-14T07:50:26;33.00;99.90
12602;DHT22;30282;16.436;99.370;2023-06-14T07:52:57;33.00;99.90
12602;DHT22;30282;16.436;99.370;2023-06-14T07:55:26;33.00;99.90
12602;DHT22;30282;16.436;99.370;2023-06-14T07:57:55;33.00;99.90
12602;DHT22;30282;16.436;99.370;2023-06-14T08:00:26;33.00;99.90
12602;DHT22;30282;16.436;99.370;2023-06-14T08:03:00;33.00;99.90
12602;DHT22;30282;16.436;99.370;2023-06-14T08:05:29;33.00;99.90
12602;DHT22;30282;16.436;99.370;2023-06-14T08:08:01;33.00;99.90
12602;DHT22;30282;16.436;99.370;2023-06-14T08:10:33;33.00;99.90
12602;DHT22;30282;16.436;99.370;2023-06-14T08:13:02;33.00;99.90
12602;DHT22;30282;16.436;99.370;2023-06-14T08:15:34;33.00;99.90
12602;DHT22;30282;16.436;99.370;2023-06-14T08:18:04;33.00;99.90
12602;DHT22;30282;16.436;99.370;2023-06-14T08:20:33;33.00;99.90
12602;DHT22;30282;16.436;99.370;2023-06-14T08:23:05;33.00;99.90
12602;DHT22;30282;16.436;99.370;2023-06-14T08:25:37;33.00;99.90
12602;DHT22;30282;16.436;99.370;2023-06-14T08:28:07;33.00;99.90
12602;DHT22;30282;16.436;99.370;2023-06-14T08:30:36;33.00;99.90
12602;DHT22;30282;16.436;99.370;2023-06-14T08:33:06;33.00;99.90
12602;DHT22;30282;16.436;99.370;2023-06-14T08:35:35;33.10;99.90
12602;DHT22;30282;16.436;99.370;2023-06-14T08:38:06;33.20;99.90
12602;DHT22;30282;16.436;99.370;2023-06-14T08:40:37;33.30;99.90
12602;DHT22;30282;16.436;99.370;2023-06-14T08:43:07;33.40;99.90
12602;DHT22;30282;16.436;99.370;2023-06-14T08:45:40;33.50;99.90
12602;DHT22;30282;16.436;99.370;2023-06-14T08:48:13;33.60;99.90
12602;DHT22;30282;16.436;99.370;2023-06-14T08:50:44;33.60;99.90
12602;DHT22;30282;16.436;99.370;2023-06-14T08:53:15;33.70;99.90
12602;DHT22;30282;16.436;99.370;2023-06-14T08:55:47;33.70;99.90
12602;DHT22;30282;16.436;99.370;2023-06-14T08:58:19;33.70;99.90
12602;DHT22;30282;16.436;99.370;2023-06-14T09:00:51;33.70;99.90
12602;DHT22;30282;16.436;99.370;2023-06-14T09:03:25;33.80;99.90
12602;DHT22;30282;16.436;99.370;2023-06-14T09:05:57;33.80;99.90
12602;DHT22;30282;16.436;99.370;2023-06-14T09:08:28;33.90;99.90
12602;DHT22;30282;16.436;99.370;2023-06-14T09:11:02;34.00;99.90
12602;DHT22;30282;16.436;99.370;2023-06-14T09:13:31;34.10;99.90
12602;DHT22;30282;16.436;99.370;2023-06-14T09:16:03;34.10;99.90
12602;DHT22;30282;16.436;99.370;2023-06-14T09:18:43;34.10;99.90
12602;DHT22;30282;16.436;99.370;2023-06-14T09:21:15;34.10;99.90
12602;DHT22;30282;16.436;99.370;2023-06-14T09:23:47;34.20;99.90
12602;DHT22;30282;16.436;99.370;2023-06-14T09:26:23;34.10;99.90
12602;DHT22;30282;16.436;99.370;2023-06-14T09:28:56;34.20;99.90
12602;DHT22;30282;16.436;99.370;2023-06-14T09:31:32;34.10;99.90
12602;DHT22;30282;16.436;99.370;2023-06-14T09:34:07;34.00;99.90
12602;DHT22;30282;16.436;99.370;2023-06-14T09:36:40;33.90;99.90
12602;DHT22;30282;16.436;99.370;2023-06-14T09:39:09;33.80;99.90
12602;DHT22;30282;16.436;99.370;2023-06-14T09:41:40;33.80;99.90
12602;DHT22;30282;16.436;99.370;2023-06-14T09:44:10;33.80;99.90
12602;DHT22;30282;16.436;99.370;2023-06-14T09:46:39;33.70;99.90
12602;DHT22;30282;16.436;99.370;2023-06-14T09:49:16;33.70;99.90
12602;DHT22;30282;16.436;99.370;2023-06-14T09:51:46;33.70;99.90
12602;DHT22;30282;16.436;99.370;2023-06-14T09:54:22;33.70;99.90
12602;DHT22;30282;16.436;99.370;2023-06-14T09:56:54;33.70;99.90
12602;DHT22;30282;16.436;99.370;2023-06-14T09:59:27;33.70;99.90
12602;DHT22;30282;16.436;99.370;2023-06-14T10:02:01;33.60;99.90
12602;DHT22;30282;16.436;99.370;2023-06-14T10:04:35;33.60;99.90
12602;DHT22;30282;16.436;99.370;2023-06-14T10:07:05;33.50;99.90
12602;DHT22;30282;16.436;99.370;2023-06-14T10:09:34;33.50;99.90
12602;DHT22;30282;16.436;99.370;2023-06-14T10:12:07;33.40;99.90
12602;DHT22;30282;16.436;99.370;2023-06-14T10:14:37;33.40;99.90
12602;DHT22;30282;16.436;99.370;2023-06-14T10:17:10;33.40;99.90
12602;DHT22;30282;16.436;99.370;2023-06-14T10:19:44;33.40;99.90
12602;DHT22;30282;16.436;99.370;2023-06-14T10:22:21;33.40;99.90
12602;DHT22;30282;16.436;99.370;2023-06-14T10:24:52;33.40;99.90
12602;DHT22;30282;16.436;99.370;2023-06-14T10:27:21;33.30;99.90
12602;DHT22;30282;16.436;99.370;2023-06-14T10:30:06;33.30;99.90
12602;DHT22;30282;16.436;99.370;2023-06-14T10:32:43;33.20;99.90
12602;DHT22;30282;16.436;99.370;2023-06-14T10:35:37;33.10;99.90
12602;DHT22;30282;16.436;99.370;2023-06-14T10:38:10;33.10;99.90
12602;DHT22;30282;16.436;99.370;2023-06-14T10:40:40;33.20;99.90
12602;DHT22;30282;16.436;99.370;2023-06-14T10:43:22;33.10;99.90
12602;DHT22;30282;16.436;99.370;2023-06-14T10:46:14;33.20;99.90
12602;DHT22;30282;16.436;99.370;2023-06-14T10:48:43;33.20;99.90
12602;DHT22;30282;16.436;99.370;2023-06-14T10:51:21;33.10;99.90
12602;DHT22;30282;16.436;99.370;2023-06-14T10:53:50;33.10;99.90
12602;DHT22;30282;16.436;99.370;2023-06-14T10:56:28;33.00;99.90
12602;DHT22;30282;16.436;99.370;2023-06-14T10:58:57;33.00;99.90
12602;DHT22;30282;16.436;99.370;2023-06-14T11:01:35;33.00;99.90
12602;DHT22;30282;16.436;99.370;2023-06-14T11:04:09;33.00;99.90
12602;DHT22;30282;16.436;99.370;2023-06-14T11:06:47;32.80;99.90
12602;DHT22;30282;16.436;99.370;2023-06-14T11:12:28;32.80;99.90
12602;DHT22;30282;16.436;99.370;2023-06-14T11:15:01;32.70;99.90
12602;DHT22;30282;16.436;99.370;2023-06-14T11:17:33;32.70;99.90
12602;DHT22;30282;16.436;99.370;2023-06-14T11:20:09;32.60;99.90
12602;DHT22;30282;16.436;99.370;2023-06-14T11:22:44;32.60;99.90
12602;DHT22;30282;16.436;99.370;2023-06-14T11:25:13;32.50;99.90
12602;DHT22;30282;16.436;99.370;2023-06-14T11:27:42;32.50;99.90
12602;DHT22;30282;16.436;99.370;2023-06-14T11:30:13;32.40;99.90
12602;DHT22;30282;16.436;99.370;2023-06-14T11:32:42;32.40;99.90
12602;DHT22;30282;16.436;99.370;2023-06-14T11:35:11;32.30;99.90
12602;DHT22;30282;16.436;99.370;2023-06-14T11:37:42;32.30;99.90
12602;DHT22;30282;16.436;99.370;2023-06-14T11:40:12;32.30;99.90
12602;DHT22;30282;16.436;99.370;2023-06-14T11:42:42;32.20;99.90
12602;DHT22;30282;16.436;99.370;2023-06-14T11:45:11;32.20;99.90
12602;DHT22;30282;16.436;99.370;2023-06-14T11:47:40;32.10;99.90
12602;DHT22;30282;16.436;99.370;2023-06-14T11:50:10;32.10;99.90
12602;DHT22;30282;16.436;99.370;2023-06-14T11:52:39;32.00;99.90
12602;DHT22;30282;16.436;99.370;2023-06-14T11:55:10;31.90;99.90
12602;DHT22;30282;16.436;99.370;2023-06-14T11:57:39;31.80;99.90
12602;DHT22;30282;16.436;99.370;2023-06-14T12:00:09;31.70;99.90
12602;DHT22;30282;16.436;99.370;2023-06-14T12:02:39;31.70;99.90
12602;DHT22;30282;16.436;99.370;2023-06-14T12:05:09;31.60;99.90
12602;DHT22;30282;16.436;99.370;2023-06-14T12:07:38;31.60;99.90
12602;DHT22;30282;16.436;99.370;2023-06-14T12:10:10;31.60;99.90
12602;DHT22;30282;16.436;99.370;2023-06-14T12:12:41;31.60;99.90
12602;DHT22;30282;16.436;99.370;2023-06-14T12:15:11;31.60;99.90
12602;DHT22;30282;16.436;99.370;2023-06-14T12:17:41;31.50;99.90
12602;DHT22;30282;16.436;99.370;2023-06-14T12:20:12;31.40;99.90
12602;DHT22;30282;16.436;99.370;2023-06-14T12:22:52;31.40;99.90
12602;DHT22;30282;16.436;99.370;2023-06-14T12:25:30;31.30;99.90
12602;DHT22;30282;16.436;99.370;2023-06-14T12:28:04;31.30;99.90
12602;DHT22;30282;16.436;99.370;2023-06-14T12:30:33;31.30;99.90
12602;DHT22;30282;16.436;99.370;2023-06-14T12:33:03;31.30;99.90
12602;DHT22;30282;16.436;99.370;2023-06-14T12:35:32;31.20;99.90
12602;DHT22;30282;16.436;99.370;2023-06-14T12:38:01;31.20;99.90
12602;DHT22;30282;16.436;99.370;2023-06-14T12:40:32;31.10;99.90
12602;DHT22;30282;16.436;99.370;2023-06-14T12:43:04;31.10;99.90
12602;DHT22;30282;16.436;99.370;2023-06-14T12:45:34;31.10;99.90
12602;DHT22;30282;16.436;99.370;2023-06-14T12:48:03;31.10;99.90
12602;DHT22;30282;16.436;99.370;2023-06-14T12:50:33;31.10;99.90
12602;DHT22;30282;16.436;99.370;2023-06-14T12:53:02;31.00;99.90
12602;DHT22;30282;16.436;99.370;2023-06-14T12:55:36;31.00;99.90
12602;DHT22;30282;16.436;99.370;2023-06-14T12:58:06;30.90;99.90
12602;DHT22;30282;16.436;99.370;2023-06-14T13:00:36;30.90;99.90
12602;DHT22;30282;16.436;99.370;2023-06-14T13:03:05;30.70;99.90
12602;DHT22;30282;16.436;99.370;2023-06-14T13:05:36;30.60;99.90
12602;DHT22;30282;16.436;99.370;2023-06-14T13:08:08;30.50;99.90
12602;DHT22;30282;16.436;99.370;2023-06-14T13:10:43;30.50;99.90
12602;DHT22;30282;16.436;99.370;2023-06-14T13:13:18;30.50;99.90
12602;DHT22;30282;16.436;99.370;2023-06-14T13:15:50;30.40;99.90
12602;DHT22;30282;16.436;99.370;2023-06-14T13:18:19;30.40;99.90
12602;DHT22;30282;16.436;99.370;2023-06-14T13:20:49;30.30;99.90
12602;DHT22;30282;16.436;99.370;2023-06-14T13:23:18;30.30;99.90
12602;DHT22;30282;16.436;99.370;2023-06-14T13:25:52;30.20;99.90
12602;DHT22;30282;16.436;99.370;2023-06-14T13:28:27;30.20;99.90
12602;DHT22;30282;16.436;99.370;2023-06-14T13:30:58;30.20;99.90
12602;DHT22;30282;16.436;99.370;2023-06-14T13:33:27;30.20;99.90
12602;DHT22;30282;16.436;99.370;2023-06-14T13:36:07;30.20;99.90
12602;DHT22;30282;16.436;99.370;2023-06-14T13:38:37;30.10;99.90
12602;DHT22;30282;16.436;99.370;2023-06-14T13:41:11;29.90;99.90
12602;DHT22;30282;16.436;99.370;2023-06-14T13:43:40;29.80;99.90
12602;DHT22;30282;16.436;99.370;2023-06-14T13:46:10;29.70;99.90
12602;DHT22;30282;16.436;99.370;2023-06-14T13:48:39;29.50;99.90
12602;DHT22;30282;16.436;99.370;2023-06-14T13:51:09;29.40;99.90
12602;DHT22;30282;16.436;99.370;2023-06-14T13:53:38;29.40;99.90
12602;DHT22;30282;16.436;99.370;2023-06-14T13:56:13;29.50;99.90
12602;DHT22;30282;16.436;99.370;2023-06-14T13:58:42;29.50;99.90
12602;DHT22;30282;16.436;99.370;2023-06-14T14:01:12;29.40;99.90
12602;DHT22;30282;16.436;99.370;2023-06-14T14:03:41;29.40;99.90
12602;DHT22;30282;16.436;99.370;2023-06-14T14:06:12;29.50;99.90
12602;DHT22;30282;16.436;99.370;2023-06-14T14:08:44;29.60;99.90
12602;DHT22;30282;16.436;99.370;2023-06-14T14:11:19;29.60;99.90
12602;DHT22;30282;16.436;99.370;2023-06-14T14:13:55;29.50;99.90
12602;DHT22;30282;16.436;99.370;2023-06-14T14:16:33;29.50;99.90
12602;DHT22;30282;16.436;99.370;2023-06-14T14:19:04;29.50;99.90
12602;DHT22;30282;16.436;99.370;2023-06-14T14:21:36;29.50;99.90
12602;DHT22;30282;16.436;99.370;2023-06-14T14:24:06;29.40;99.90
12602;DHT22;30282;16.436;99.370;2023-06-14T14:26:44;29.30;99.90
12602;DHT22;30282;16.436;99.370;2023-06-14T14:29:17;29.40;99.90
12602;DHT22;30282;16.436;99.370;2023-06-14T14:31:46;29.30;99.90
12602;DHT22;30282;16.436;99.370;2023-06-14T14:34:15;29.30;99.90
12602;DHT22;30282;16.436;99.370;2023-06-14T14:36:45;29.40;99.90
12602;DHT22;30282;16.436;99.370;2023-06-14T14:39:14;29.40;99.90
12602;DHT22;30282;16.436;99.370;2023-06-14T14:41:45;29.50;99.90
12602;DHT22;30282;16.436;99.370;2023-06-14T14:44:14;29.50;99.90
12602;DHT22;30282;16.436;99.370;2023-06-14T14:46:45;29.50;99.90
12602;DHT22;30282;16.436;99.370;2023-06-14T14:49:14;29.50;99.90
12602;DHT22;30282;16.436;99.370;2023-06-14T14:51:44;29.60;99.90
12602;DHT22;30282;16.436;99.370;2023-06-14T14:54:16;29.60;99.90
12602;DHT22;30282;16.436;99.370;2023-06-14T14:56:49;29.50;99.90
12602;DHT22;30282;16.436;99.370;2023-06-14T14:59:18;29.30;99.90
12602;DHT22;30282;16.436;99.370;2023-06-14T15:01:49;29.20;99.90
12602;DHT22;30282;16.436;99.370;2023-06-14T15:04:18;29.10;99.90
12602;DHT22;30282;16.436;99.370;2023-06-14T15:06:48;29.10;99.90
12602;DHT22;30282;16.436;99.370;2023-06-14T15:09:17;29.10;99.90
12602;DHT22;30282;16.436;99.370;2023-06-14T15:11:48;29.00;99.90
12602;DHT22;30282;16.436;99.370;2023-06-14T15:14:17;29.00;99.90
12602;DHT22;30282;16.436;99.370;2023-06-14T15:16:47;29.10;99.90
12602;DHT22;30282;16.436;99.370;2023-06-14T15:19:17;29.10;99.90
12602;DHT22;30282;16.436;99.370;2023-06-14T15:21:47;29.00;99.90
12602;DHT22;30282;16.436;99.370;2023-06-14T15:24:16;29.00;99.90
12602;DHT22;30282;16.436;99.370;2023-06-14T15:26:47;29.00;99.90
12602;DHT22;30282;16.436;99.370;2023-06-14T15:29:16;29.00;99.90
12602;DHT22;30282;16.436;99.370;2023-06-14T15:31:46;28.90;99.90
12602;DHT22;30282;16.436;99.370;2023-06-14T15:34:16;28.80;99.90
12602;DHT22;30282;16.436;99.370;2023-06-14T15:36:45;28.80;99.90
12602;DHT22;30282;16.436;99.370;2023-06-14T15:39:14;28.70;99.90
12602;DHT22;30282;16.436;99.370;2023-06-14T15:41:44;28.70;99.90
12602;DHT22;30282;16.436;99.370;2023-06-14T15:44:16;28.60;99.90
12602;DHT22;30282;16.436;99.370;2023-06-14T15:46:45;28.60;99.90
12602;DHT22;30282;16.436;99.370;2023-06-14T15:49:14;28.60;99.90
12602;DHT22;30282;16.436;99.370;2023-06-14T15:51:47;28.40;99.90
12602;DHT22;30282;16.436;99.370;2023-06-14T15:54:17;28.30;99.90
12602;DHT22;30282;16.436;99.370;2023-06-14T15:56:46;28.20;99.90
12602;DHT22;30282;16.436;99.370;2023-06-14T15:59:17;28.20;99.90
12602;DHT22;30282;16.436;99.370;2023-06-14T16:01:46;28.20;99.90
12602;DHT22;30282;16.436;99.370;2023-06-14T16:04:16;28.10;99.90
12602;DHT22;30282;16.436;99.370;2023-06-14T16:06:45;28.20;99.90
12602;DHT22;30282;16.436;99.370;2023-06-14T16:09:14;28.30;99.90
12602;DHT22;30282;16.436;99.370;2023-06-14T16:11:43;28.30;99.90
12602;DHT22;30282;16.436;99.370;2023-06-14T16:14:13;28.20;99.90
12602;DHT22;30282;16.436;99.370;2023-06-14T16:16:44;28.30;99.90
12602;DHT22;30282;16.436;99.370;2023-06-14T16:19:13;28.30;99.90
12602;DHT22;30282;16.436;99.370;2023-06-14T16:21:42;28.30;99.90
12602;DHT22;30282;16.436;99.370;2023-06-14T16:24:12;28.40;99.90
12602;DHT22;30282;16.436;99.370;2023-06-14T16:26:42;28.40;99.90
12602;DHT22;30282;16.436;99.370;2023-06-14T16:29:11;28.40;99.90
12602;DHT22;30282;16.436;99.370;2023-06-14T16:31:42;28.40;99.90
12602;DHT22;30282;16.436;99.370;2023-06-14T16:34:11;28.30;99.90